Savannah, Minnesota
Current Conditions -  °F | °C
As of 9:35 AM on Monday 24 Nov 2014 (Local Time) from KGPZ Reporting Station
Overcast Overcast  
Wind Chill:   Ceiling: 1600
Heat Index: 19°   Visibility: 3mi
Dew Point: 14°   Wind: 21mph
Humidity: 80%   Direction: 320°NW
Pressure: 29.41"   Gusts: 30mph
Location:  47.3121°N, 93.3823°W
Report Text: KGPZ 241535Z AUTO 32018G26KT 3SM FEW012 BKN016 OVC030 M07/M10 A2941 RMK AO1
Loading
Personal Weather Stations






























Interactive Weather Map New forecast layout! Learn more

10-Day Weather Forecast

Advertisements
Track Severe Weather on mobile